Time;durP1;ratioP1;P1;durP2;ratioP2;P2;SDS_P1;SDS_P2;PMS_P1;PMS_P2;Temp;Humidity;BMP_temperature;BMP_pressure;BME280_temperature;BME280_humidity;BME280_pressure;Samples;Min_cycle;Max_cycle;Signal;HPM_P1;HPM_P2
2023/11/09 00:02:01;;;;;;;3.28;1.73;;;10.50;99.90;;;;;;4992762;28;20042;-76
2023/11/09 00:04:27;;;;;;;5.00;1.40;;;10.60;99.90;;;;;;4991253;28;20039;-76
2023/11/09 00:06:52;;;;;;;2.47;1.30;;;10.50;99.90;;;;;;4991620;28;20042;-76
2023/11/09 00:09:18;;;;;;;1.95;1.50;;;10.50;99.90;;;;;;4991426;28;20049;-77
2023/11/09 00:11:45;;;;;;;3.72;1.48;;;10.50;99.90;;;;;;4991567;28;20038;-76
2023/11/09 00:14:15;;;;;;;2.50;1.50;;;10.50;99.90;;;;;;4974909;28;20093;-76
2023/11/09 00:16:41;;;;;;;1.90;1.50;;;10.60;99.90;;;;;;4975255;28;20096;-77
2023/11/09 00:19:06;;;;;;;1.92;1.25;;;10.50;99.90;;;;;;4991363;28;20057;-76
2023/11/09 00:21:32;;;;;;;3.15;1.50;;;10.50;99.90;;;;;;4991672;28;20125;-77
2023/11/09 00:23:58;;;;;;;2.85;1.50;;;10.60;99.90;;;;;;4990898;28;20085;-77
2023/11/09 00:26:24;;;;;;;3.00;1.60;;;10.60;99.90;;;;;;4991299;28;20041;-76
2023/11/09 00:28:50;;;;;;;4.05;1.95;;;10.60;99.90;;;;;;4991312;28;20081;-77
2023/11/09 00:31:18;;;;;;;1.90;1.70;;;10.60;99.90;;;;;;5009781;28;20049;-77
2023/11/09 00:33:44;;;;;;;2.63;1.70;;;10.60;99.90;;;;;;4995931;28;20072;-76
2023/11/09 00:36:09;;;;;;;3.08;1.80;;;10.60;99.90;;;;;;4990244;28;20129;-76
2023/11/09 00:38:35;;;;;;;2.38;1.73;;;10.70;99.90;;;;;;4991292;28;20045;-76
2023/11/09 00:41:02;;;;;;;3.63;1.67;;;10.60;99.90;;;;;;4991424;28;20034;-76
2023/11/09 00:43:29;;;;;;;2.33;1.65;;;10.60;99.90;;;;;;4990774;28;20045;-76
2023/11/09 00:45:54;;;;;;;2.20;1.88;;;10.60;99.90;;;;;;4974959;28;20041;-77
2023/11/09 00:48:20;;;;;;;4.30;1.83;;;10.60;99.90;;;;;;4991211;28;20043;-77
2023/11/09 00:50:46;;;;;;;5.35;1.80;;;10.60;99.90;;;;;;4991118;28;20041;-76
2023/11/09 00:53:11;;;;;;;2.30;1.65;;;10.70;99.90;;;;;;4990666;28;20074;-76
2023/11/09 00:55:37;;;;;;;2.80;1.60;;;10.60;99.90;;;;;;4975019;28;20093;-76
2023/11/09 00:58:02;;;;;;;2.10;1.42;;;10.60;99.90;;;;;;4990952;28;20050;-76
2023/11/09 01:00:28;;;;;;;2.78;1.80;;;10.60;99.90;;;;;;4994466;28;20030;-76
2023/11/09 01:02:54;;;;;;;2.08;1.63;;;10.60;99.90;;;;;;5008148;28;20034;-76
2023/11/09 01:05:20;;;;;;;2.10;1.60;;;10.60;99.90;;;;;;4993093;28;20049;-76
2023/11/09 01:07:46;;;;;;;7.07;1.70;;;10.70;99.90;;;;;;4994756;28;20050;-76
2023/11/09 01:10:12;;;;;;;2.83;1.63;;;10.60;99.90;;;;;;4994968;28;20039;-76
2023/11/09 01:12:37;;;;;;;4.18;1.50;;;10.70;99.90;;;;;;4994328;28;20421;-76
2023/11/09 01:15:04;;;;;;;2.10;1.33;;;10.70;99.90;;;;;;4994731;28;20136;-76
2023/11/09 01:17:29;;;;;;;4.03;1.38;;;10.60;99.90;;;;;;4994624;28;20049;-76
2023/11/09 01:19:55;;;;;;;2.85;1.20;;;10.70;99.90;;;;;;4994627;28;20413;-76
2023/11/09 01:22:20;;;;;;;1.45;1.05;;;10.60;99.90;;;;;;4995735;28;20053;-76
2023/11/09 01:24:47;;;;;;;1.75;1.20;;;10.60;99.90;;;;;;4994289;28;20048;-76
2023/11/09 01:27:13;;;;;;;1.98;1.20;;;10.60;99.90;;;;;;4994372;28;20481;-76
2023/11/09 01:29:39;;;;;;;2.35;1.20;;;10.70;99.90;;;;;;4994658;28;20073;-75
2023/11/09 01:32:05;;;;;;;1.05;0.95;;;10.70;99.90;;;;;;4978157;28;20077;-75
2023/11/09 01:34:31;;;;;;;1.90;1.20;;;10.70;99.90;;;;;;4993988;28;20532;-76
2023/11/09 01:36:57;;;;;;;1.48;1.13;;;10.70;99.90;;;;;;4994390;28;20150;-76
2023/11/09 01:39:23;;;;;;;1.88;1.20;;;10.70;99.90;;;;;;4978009;28;20082;-75
2023/11/09 01:41:48;;;;;;;2.50;1.75;;;10.70;99.90;;;;;;4995484;28;20046;-76
2023/11/09 01:44:14;;;;;;;1.70;0.90;;;10.70;99.90;;;;;;4993746;28;20401;-76
2023/11/09 01:46:42;;;;;;;2.70;1.17;;;10.60;99.90;;;;;;4994441;28;20050;-75
2023/11/09 01:49:10;;;;;;;3.03;1.10;;;10.70;99.90;;;;;;4994124;28;20039;-76
2023/11/09 01:51:38;;;;;;;1.23;1.00;;;10.70;99.90;;;;;;4994357;28;20409;-76
2023/11/09 01:54:05;;;;;;;1.48;1.00;;;10.70;99.90;;;;;;4993669;28;20050;-76
2023/11/09 01:56:30;;;;;;;2.25;1.27;;;10.70;99.90;;;;;;4993899;28;20046;-76
2023/11/09 01:58:56;;;;;;;2.03;1.10;;;10.70;99.90;;;;;;4993830;28;20043;-76
2023/11/09 02:01:24;;;;;;;1.55;1.10;;;10.80;99.90;;;;;;4993908;28;20409;-76
2023/11/09 02:03:51;;;;;;;3.15;1.15;;;10.70;99.90;;;;;;4993515;28;20080;-76
2023/11/09 02:06:18;;;;;;;2.55;1.20;;;10.70;99.90;;;;;;4993857;28;20047;-76
2023/11/09 02:08:45;;;;;;;1.77;1.17;;;10.70;99.90;;;;;;4993629;28;20046;-76
2023/11/09 02:11:10;;;;;;;1.92;1.15;;;10.80;99.90;;;;;;4993579;28;20061;-76
2023/11/09 02:13:36;;;;;;;2.65;1.42;;;10.70;99.90;;;;;;4993458;28;20038;-76
2023/11/09 02:16:05;;;;;;;1.90;1.23;;;10.80;99.90;;;;;;4993304;28;20046;-76
2023/11/09 02:18:31;;;;;;;1.55;1.15;;;10.70;99.90;;;;;;4993309;28;20050;-76
2023/11/09 02:20:57;;;;;;;1.60;1.20;;;10.70;99.90;;;;;;4993506;28;20046;-76
2023/11/09 02:23:23;;;;;;;2.35;1.85;;;10.80;99.90;;;;;;4993251;28;20053;-76
2023/11/09 02:25:53;;;;;;;2.03;1.55;;;10.70;99.90;;;;;;4993708;28;20405;-76
2023/11/09 02:28:19;;;;;;;2.30;1.02;;;10.80;99.90;;;;;;4993639;28;20129;-76
2023/11/09 02:30:45;;;;;;;2.08;1.35;;;10.80;99.90;;;;;;4993357;28;20057;-76
2023/11/09 02:33:10;;;;;;;1.65;1.30;;;10.80;99.90;;;;;;4992892;28;20042;-76
2023/11/09 02:35:37;;;;;;;1.52;1.25;;;10.70;99.90;;;;;;4993554;28;20481;-76
2023/11/09 02:38:03;;;;;;;2.63;1.20;;;10.70;99.90;;;;;;4993146;28;20035;-76
2023/11/09 02:40:29;;;;;;;1.52;1.20;;;10.80;99.90;;;;;;4993164;28;20490;-76
2023/11/09 02:42:55;;;;;;;1.40;0.90;;;10.80;99.90;;;;;;4992656;28;20047;-76
2023/11/09 02:45:21;;;;;;;1.73;1.05;;;10.70;99.90;;;;;;4993049;28;20085;-76
2023/11/09 02:47:46;;;;;;;1.02;0.88;;;10.80;99.90;;;;;;4976932;28;20042;-76
2023/11/09 02:50:12;;;;;;;2.67;1.10;;;10.70;99.90;;;;;;4993094;28;20065;-76
2023/11/09 02:52:38;;;;;;;1.00;0.80;;;10.80;99.90;;;;;;4992496;28;20039;-76
2023/11/09 02:55:04;;;;;;;1.52;0.80;;;10.80;99.90;;;;;;4992891;28;20034;-75
2023/11/09 02:57:32;;;;;;;2.42;0.95;;;10.80;99.90;;;;;;4993072;28;20382;-76
2023/11/09 02:59:59;;;;;;;1.08;0.88;;;10.70;99.90;;;;;;4993102;28;20481;-76
2023/11/09 03:02:24;;;;;;;2.47;0.73;;;10.80;99.90;;;;;;4992277;28;20552;-76
2023/11/09 03:04:50;;;;;;;1.23;0.60;;;10.80;99.90;;;;;;4992733;28;20042;-76
2023/11/09 03:07:16;;;;;;;0.95;0.60;;;10.80;99.90;;;;;;4976434;28;20069;-76
2023/11/09 03:09:41;;;;;;;1.85;0.68;;;10.70;99.90;;;;;;4992532;28;20039;-76
2023/11/09 03:12:07;;;;;;;0.82;0.50;;;10.80;99.90;;;;;;4992513;28;20045;-76
2023/11/09 03:14:34;;;;;;;0.90;0.50;;;10.80;99.90;;;;;;4992206;28;20049;-76
2023/11/09 03:17:07;;;;;;;1.10;0.70;;;10.80;99.90;;;;;;4992527;28;20084;-76
2023/11/09 03:19:33;;;;;;;1.73;0.90;;;10.80;99.90;;;;;;4992426;28;20559;-76
2023/11/09 03:21:59;;;;;;;2.10;0.80;;;10.80;99.90;;;;;;4992555;28;20042;-77
2023/11/09 03:24:24;;;;;;;1.45;0.98;;;10.80;99.90;;;;;;4991988;28;20129;-76
2023/11/09 03:26:50;;;;;;;1.95;1.35;;;10.90;99.90;;;;;;4991619;28;20050;-76
2023/11/09 03:29:16;;;;;;;1.73;1.10;;;10.90;99.90;;;;;;4976178;28;20057;-76
2023/11/09 03:31:42;;;;;;;2.40;1.17;;;10.90;99.90;;;;;;4992227;28;20596;-76
2023/11/09 03:34:08;;;;;;;1.92;1.00;;;10.90;99.90;;;;;;4991817;28;20069;-76
2023/11/09 03:36:34;;;;;;;1.33;1.00;;;10.90;99.90;;;;;;4992408;28;20129;-76
2023/11/09 03:39:00;;;;;;;1.55;1.10;;;10.80;99.90;;;;;;4992129;28;20042;-76
2023/11/09 03:41:26;;;;;;;1.52;0.60;;;10.90;99.90;;;;;;4992003;28;20034;-76
2023/11/09 03:43:53;;;;;;;0.70;0.63;;;10.80;99.90;;;;;;4991547;28;20038;-77
2023/11/09 03:46:21;;;;;;;1.15;0.85;;;10.90;99.90;;;;;;4975898;28;20073;-76
2023/11/09 03:48:47;;;;;;;1.05;0.75;;;10.90;99.90;;;;;;4991979;28;20041;-75
2023/11/09 03:51:12;;;;;;;1.38;0.88;;;10.80;99.90;;;;;;4992098;28;20049;-76
2023/11/09 03:53:38;;;;;;;1.90;1.00;;;10.90;99.90;;;;;;4991484;28;20048;-76
2023/11/09 03:56:04;;;;;;;3.08;0.90;;;10.80;99.90;;;;;;4991843;28;20046;-76
2023/11/09 03:58:30;;;;;;;2.03;0.93;;;10.80;99.90;;;;;;4991862;28;20078;-76
2023/11/09 04:00:56;;;;;;;2.10;1.23;;;10.80;99.90;;;;;;4992005;28;20472;-75
2023/11/09 04:03:22;;;;;;;2.28;0.93;;;10.80;99.90;;;;;;4991243;28;20052;-75
2023/11/09 04:05:48;;;;;;;1.02;0.70;;;10.90;99.90;;;;;;4991579;28;20046;-75
2023/11/09 04:08:13;;;;;;;4.50;0.80;;;10.90;99.90;;;;;;4975283;28;20049;-75
2023/11/09 04:10:39;;;;;;;1.13;0.70;;;10.80;99.90;;;;;;4991500;28;20050;-75
2023/11/09 04:13:04;;;;;;;0.98;0.60;;;10.80;99.90;;;;;;4991306;28;20073;-76
2023/11/09 04:15:30;;;;;;;1.98;0.60;;;10.80;99.90;;;;;;4991440;28;20516;-76
2023/11/09 04:17:56;;;;;;;1.05;0.73;;;10.90;99.90;;;;;;4975443;28;20506;-76
2023/11/09 04:20:22;;;;;;;0.73;0.60;;;10.80;99.90;;;;;;4992530;28;20042;-75
2023/11/09 04:22:48;;;;;;;0.55;0.50;;;10.80;99.90;;;;;;4974760;28;20038;-76
2023/11/09 04:25:14;;;;;;;0.70;0.70;;;10.80;99.90;;;;;;4991536;28;20456;-75
2023/11/09 04:27:39;;;;;;;0.73;0.70;;;10.90;99.90;;;;;;4991552;28;20073;-75
2023/11/09 04:30:09;;;;;;;1.52;0.90;;;10.80;99.90;;;;;;4991249;28;20089;-76
2023/11/09 04:32:34;;;;;;;0.77;0.57;;;10.90;99.90;;;;;;4992052;28;20084;-76
2023/11/09 04:35:00;;;;;;;1.48;0.93;;;10.80;99.90;;;;;;4991375;28;20466;-76
2023/11/09 04:37:25;;;;;;;2.42;0.80;;;10.80;99.90;;;;;;4991398;28;20053;-76
2023/11/09 04:39:51;;;;;;;5.07;0.90;;;10.90;99.90;;;;;;4990882;28;20040;-76
2023/11/09 04:42:23;;;;;;;1.13;0.65;;;10.90;99.90;;;;;;4974888;28;20038;-76
2023/11/09 04:44:50;;;;;;;1.95;0.60;;;10.90;99.90;;;;;;4991209;28;20061;-76
2023/11/09 04:47:21;;;;;;;0.77;0.65;;;10.80;99.90;;;;;;4974882;28;20034;-76
2023/11/09 04:49:57;;;;;;;0.70;0.63;;;10.90;99.90;;;;;;4975044;28;20125;-77
2023/11/09 04:52:25;;;;;;;0.98;0.57;;;10.80;99.90;;;;;;4974758;28;20050;-76
2023/11/09 04:54:59;;;;;;;1.30;0.80;;;10.90;99.90;;;;;;4991368;28;20050;-76
2023/11/09 05:08:25;;;;;;;1.65;1.15;;;10.90;99.90;;;;;;5001596;28;20050;-76
2023/11/09 05:10:51;;;;;;;2.38;1.40;;;10.80;99.90;;;;;;4991044;28;20042;-76
2023/11/09 05:13:16;;;;;;;1.42;1.23;;;10.90;99.90;;;;;;5005420;28;20044;-76
2023/11/09 05:15:44;;;;;;;2.22;1.50;;;10.90;99.90;;;;;;4994490;28;20038;-77
2023/11/09 05:18:10;;;;;;;3.20;1.67;;;10.80;99.90;;;;;;4974782;28;20533;-76
2023/11/09 05:20:35;;;;;;;2.47;1.70;;;10.90;99.90;;;;;;4991021;28;20070;-76
2023/11/09 05:23:01;;;;;;;3.88;1.77;;;10.90;99.90;;;;;;4990660;28;20121;-77
2023/11/09 05:25:27;;;;;;;2.33;1.90;;;10.90;99.90;;;;;;4991077;28;20122;-77
2023/11/09 05:27:54;;;;;;;2.30;1.90;;;10.80;99.90;;;;;;4974649;28;20178;-76
2023/11/09 05:30:20;;;;;;;3.38;2.63;;;11.00;99.90;;;;;;4990812;28;20461;-77
2023/11/09 05:32:46;;;;;;;3.92;2.67;;;11.00;99.90;;;;;;5005427;28;20443;-77
2023/11/09 05:35:11;;;;;;;4.28;3.05;;;11.00;99.90;;;;;;4982006;28;20045;-77
2023/11/09 05:37:38;;;;;;;3.42;2.70;;;10.90;99.90;;;;;;4990710;28;20158;-77
2023/11/09 05:40:07;;;;;;;4.28;3.20;;;11.00;99.90;;;;;;4991007;28;20418;-77
2023/11/09 05:42:34;;;;;;;5.13;3.38;;;10.90;99.90;;;;;;4974331;28;20038;-77
2023/11/09 05:45:02;;;;;;;4.85;2.97;;;10.90;99.90;;;;;;4990713;28;20042;-77
2023/11/09 05:47:28;;;;;;;4.63;3.60;;;11.00;99.90;;;;;;4974455;28;20081;-77
2023/11/09 05:49:56;;;;;;;6.13;3.70;;;11.00;99.90;;;;;;4990772;28;20105;-77
2023/11/09 05:52:23;;;;;;;6.50;4.10;;;10.90;99.90;;;;;;4993586;28;20532;-79
2023/11/09 05:54:49;;;;;;;5.95;4.18;;;11.00;99.90;;;;;;4994211;28;20038;-77
2023/11/09 05:57:16;;;;;;;6.22;4.47;;;11.00;99.90;;;;;;4994412;28;20193;-77
2023/11/09 05:59:41;;;;;;;5.95;4.45;;;11.00;99.90;;;;;;4977698;28;20038;-78
2023/11/09 06:02:07;;;;;;;6.15;3.72;;;10.90;99.90;;;;;;4994335;28;20062;-77
2023/11/09 06:04:33;;;;;;;7.78;4.57;;;10.90;99.90;;;;;;4977345;28;20034;-77
2023/11/09 06:07:02;;;;;;;7.40;4.38;;;11.00;99.90;;;;;;4993945;28;20117;-77
2023/11/09 06:09:29;;;;;;;7.38;2.78;;;11.00;99.90;;;;;;4993658;28;20100;-77
2023/11/09 06:11:56;;;;;;;8.60;2.67;;;11.00;99.90;;;;;;4993907;28;20458;-77
2023/11/09 06:14:23;;;;;;;8.77;2.78;;;10.90;99.90;;;;;;4977130;28;20050;-77
2023/11/09 06:16:49;;;;;;;3.85;1.55;;;10.80;99.90;;;;;;4993803;28;20046;-77
2023/11/09 06:19:14;;;;;;;5.97;1.90;;;10.80;99.90;;;;;;4993775;28;20034;-76
2023/11/09 06:21:41;;;;;;;4.18;2.13;;;10.70;99.90;;;;;;4994081;28;20093;-77
2023/11/09 06:24:07;;;;;;;5.90;1.75;;;10.80;99.90;;;;;;4993447;28;20089;-77
2023/11/09 06:26:34;;;;;;;4.57;1.60;;;10.70;99.90;;;;;;4993944;28;20502;-77
2023/11/09 06:28:59;;;;;;;6.13;1.90;;;10.70;99.90;;;;;;4993825;28;20141;-77
2023/11/09 06:31:26;;;;;;;5.22;1.80;;;10.70;99.90;;;;;;4993928;28;20100;-78
2023/11/09 06:33:54;;;;;;;6.88;2.22;;;10.70;99.90;;;;;;4993492;28;20398;-77
2023/11/09 06:36:23;;;;;;;9.00;3.20;;;10.60;99.90;;;;;;4993594;28;20046;-77
2023/11/09 06:38:48;;;;;;;8.10;2.75;;;10.60;99.90;;;;;;4977317;28;20038;-77
2023/11/09 06:41:15;;;;;;;10.80;2.83;;;10.60;99.90;;;;;;4993778;28;20398;-76
2023/11/09 06:43:41;;;;;;;10.50;2.65;;;10.60;99.90;;;;;;4993293;28;20053;-77
2023/11/09 06:46:07;;;;;;;12.80;2.88;;;10.60;99.90;;;;;;4993367;28;20502;-77
2023/11/09 06:48:33;;;;;;;12.70;3.58;;;10.50;99.90;;;;;;4993110;28;20042;-77
2023/11/09 06:50:59;;;;;;;14.07;3.83;;;10.50;99.90;;;;;;4993583;28;20141;-76
2023/11/09 06:53:24;;;;;;;11.40;4.07;;;10.50;99.90;;;;;;4992642;28;20046;-78
2023/11/09 06:55:51;;;;;;;13.88;3.78;;;10.50;99.90;;;;;;4994300;28;20057;-77
2023/11/09 06:58:17;;;;;;;9.65;3.40;;;10.40;99.90;;;;;;4993885;28;20564;-77
2023/11/09 07:00:43;;;;;;;10.10;3.50;;;10.40;99.90;;;;;;4992915;28;20042;-77
2023/11/09 07:03:09;;;;;;;14.48;4.22;;;10.40;99.90;;;;;;4992326;28;20044;-77
2023/11/09 07:05:39;;;;;;;7.72;3.10;;;10.50;99.90;;;;;;4992627;28;20413;-77
2023/11/09 07:08:05;;;;;;;11.23;2.80;;;10.40;99.90;;;;;;4976074;28;20057;-78
2023/11/09 07:10:31;;;;;;;9.88;3.38;;;10.40;99.90;;;;;;4992775;28;20571;-78
2023/11/09 07:12:56;;;;;;;11.65;3.15;;;10.40;99.90;;;;;;4991986;28;20042;-77
2023/11/09 07:15:25;;;;;;;13.88;4.35;;;10.50;99.90;;;;;;4976355;28;20125;-77
2023/11/09 07:17:50;;;;;;;11.20;3.47;;;10.30;99.90;;;;;;4976232;28;20651;-77
2023/11/09 07:20:16;;;;;;;11.82;4.15;;;10.40;99.90;;;;;;4992570;28;20246;-77
2023/11/09 07:22:43;;;;;;;18.45;4.13;;;10.40;99.90;;;;;;4992027;28;20042;-77
2023/11/09 07:25:10;;;;;;;13.50;3.97;;;10.30;99.90;;;;;;4992389;28;20045;-77
2023/11/09 07:27:35;;;;;;;11.98;3.85;;;10.30;99.90;;;;;;4976105;28;20045;-77
2023/11/09 07:30:02;;;;;;;15.52;4.50;;;10.40;99.90;;;;;;4992541;28;20402;-77
2023/11/09 07:32:28;;;;;;;12.77;4.43;;;10.30;99.90;;;;;;4991914;28;20114;-77
2023/11/09 07:34:54;;;;;;;14.57;4.03;;;10.30;99.90;;;;;;4992466;28;20382;-77
2023/11/09 07:37:20;;;;;;;12.15;4.07;;;10.30;99.90;;;;;;4992170;28;20038;-77
2023/11/09 07:39:46;;;;;;;20.80;4.95;;;10.30;99.90;;;;;;4992113;28;20038;-77
2023/11/09 07:42:12;;;;;;;14.70;3.83;;;10.30;99.90;;;;;;4992652;28;20042;-77
2023/11/09 07:44:37;;;;;;;17.15;4.03;;;10.30;99.90;;;;;;5010622;28;20563;-77
2023/11/09 07:47:04;;;;;;;13.02;2.97;;;10.20;99.90;;;;;;5011559;28;20048;-77
2023/11/09 07:49:30;;;;;;;11.68;3.10;;;10.30;99.90;;;;;;5011535;28;20042;-77
2023/11/09 07:51:59;;;;;;;15.35;4.78;;;10.30;99.90;;;;;;4995055;28;20046;-76
2023/11/09 07:54:26;;;;;;;13.85;3.42;;;10.30;99.90;;;;;;4994682;28;20041;-77
2023/11/09 07:56:51;;;;;;;18.80;3.88;;;10.30;99.90;;;;;;5011358;28;20037;-76
2023/11/09 07:59:17;;;;;;;14.18;3.65;;;10.30;99.90;;;;;;5011386;28;20045;-77
2023/11/09 08:01:43;;;;;;;15.63;3.60;;;10.30;99.90;;;;;;5012006;28;20069;-76
2023/11/09 08:04:09;;;;;;;20.05;4.88;;;10.40;99.90;;;;;;5010882;28;20548;-76
2023/11/09 08:06:37;;;;;;;18.70;4.45;;;10.30;99.90;;;;;;5011340;28;20497;-76
2023/11/09 08:09:05;;;;;;;15.57;3.53;;;10.30;99.90;;;;;;5011162;28;20052;-76
2023/11/09 08:11:32;;;;;;;10.10;3.22;;;10.30;99.90;;;;;;5011373;28;20533;-76
2023/11/09 08:13:58;;;;;;;16.63;3.45;;;10.40;99.90;;;;;;5010252;28;20046;-77
2023/11/09 08:16:24;;;;;;;13.80;3.80;;;10.40;99.90;;;;;;5011400;28;20057;-76
2023/11/09 08:18:49;;;;;;;14.00;2.90;;;10.30;99.90;;;;;;5011021;28;20052;-77
2023/11/09 08:21:15;;;;;;;11.98;3.45;;;10.40;99.90;;;;;;4994657;28;20405;-76
2023/11/09 08:23:42;;;;;;;13.70;3.88;;;10.40;99.90;;;;;;5010569;28;20038;-76
2023/11/09 08:26:09;;;;;;;18.58;3.75;;;10.50;99.90;;;;;;4994532;28;20042;-76
2023/11/09 08:28:34;;;;;;;12.18;3.85;;;10.50;99.90;;;;;;5011214;28;20497;-77
2023/11/09 08:31:00;;;;;;;15.57;3.67;;;10.40;99.90;;;;;;5011020;28;20045;-77
2023/11/09 08:33:25;;;;;;;12.90;3.28;;;10.40;99.90;;;;;;4994482;28;20046;-77
2023/11/09 08:35:53;;;;;;;13.52;3.47;;;10.40;99.90;;;;;;5010895;28;20084;-76
2023/11/09 08:38:22;;;;;;;17.20;3.53;;;10.50;99.90;;;;;;5011012;28;20046;-77
2023/11/09 08:40:51;;;;;;;10.98;3.00;;;10.50;99.90;;;;;;4994451;28;20041;-76
2023/11/09 08:43:17;;;;;;;12.30;3.20;;;10.50;99.90;;;;;;5010372;28;20033;-77
2023/11/09 08:45:43;;;;;;;13.30;3.00;;;10.50;99.90;;;;;;4994422;28;20068;-77
2023/11/09 08:48:09;;;;;;;18.73;3.05;;;10.50;99.90;;;;;;5011056;28;20413;-77
2023/11/09 08:50:40;;;;;;;10.10;2.65;;;10.50;99.90;;;;;;5010748;28;20053;-77
2023/11/09 08:53:07;;;;;;;9.90;3.08;;;10.60;99.90;;;;;;5010244;28;20050;-78
2023/11/09 08:55:34;;;;;;;13.20;2.55;;;10.60;99.90;;;;;;4994444;28;20489;-77
2023/11/09 08:57:59;;;;;;;17.30;3.70;;;10.60;99.90;;;;;;4994368;28;20042;-78
2023/11/09 09:00:28;;;;;;;13.18;3.35;;;10.60;99.90;;;;;;5010724;28;20041;-77
2023/11/09 09:02:54;;;;;;;13.18;3.22;;;10.60;99.90;;;;;;4993946;28;20444;-77
2023/11/09 09:05:23;;;;;;;13.75;3.08;;;10.60;99.90;;;;;;4994301;28;20089;-77
2023/11/09 09:07:51;;;;;;;13.77;2.70;;;10.60;99.90;;;;;;5010663;28;20393;-76
2023/11/09 09:10:17;;;;;;;11.95;3.42;;;10.60;99.90;;;;;;5010613;28;20033;-76
2023/11/09 09:12:44;;;;;;;17.52;2.90;;;10.60;99.90;;;;;;5010370;28;20449;-77
2023/11/09 09:15:13;;;;;;;16.40;3.75;;;10.60;99.90;;;;;;5010566;28;20030;-77
2023/11/09 09:17:42;;;;;;;22.23;3.25;;;10.60;99.90;;;;;;5010797;28;20391;-77
2023/11/09 09:20:11;;;;;;;15.18;3.05;;;10.60;99.90;;;;;;5010410;28;20080;-77
2023/11/09 09:22:38;;;;;;;14.48;3.28;;;10.60;99.90;;;;;;5010267;28;20564;-77
2023/11/09 09:25:04;;;;;;;11.05;3.03;;;10.60;99.90;;;;;;5027005;28;20444;-76
2023/11/09 09:27:30;;;;;;;8.55;3.17;;;10.60;99.90;;;;;;5014501;28;20087;-77
2023/11/09 09:29:57;;;;;;;9.80;2.53;;;10.60;99.90;;;;;;5014309;28;20042;-77
2023/11/09 09:32:23;;;;;;;9.65;2.28;;;10.70;99.90;;;;;;4997804;28;20427;-76
2023/11/09 09:34:49;;;;;;;9.63;3.03;;;10.80;99.90;;;;;;5013869;28;20050;-77
2023/11/09 09:37:16;;;;;;;13.35;3.80;;;10.80;99.90;;;;;;5014128;28;20037;-77
2023/11/09 09:39:42;;;;;;;13.60;3.55;;;10.80;99.90;;;;;;5014068;28;20042;-77
2023/11/09 09:42:08;;;;;;;10.90;2.40;;;10.90;99.90;;;;;;5013862;28;20041;-77
2023/11/09 09:44:35;;;;;;;11.73;3.00;;;10.90;99.90;;;;;;5013664;28;20038;-77
2023/11/09 09:47:01;;;;;;;9.45;2.47;;;10.90;99.90;;;;;;4997502;28;20092;-77
2023/11/09 09:49:28;;;;;;;13.65;2.60;;;11.00;99.90;;;;;;5013123;28;20460;-77
2023/11/09 09:51:55;;;;;;;12.02;2.83;;;11.10;99.90;;;;;;5013259;28;20096;-76
2023/11/09 09:54:21;;;;;;;17.30;3.08;;;11.00;99.90;;;;;;5012721;28;20052;-77
2023/11/09 09:56:47;;;;;;;11.55;2.92;;;11.10;99.90;;;;;;4994830;28;20124;-77
2023/11/09 09:59:14;;;;;;;14.68;3.40;;;11.20;99.90;;;;;;5013006;28;20041;-77
2023/11/09 10:01:43;;;;;;;7.32;2.47;;;11.20;99.90;;;;;;4997423;28;20065;-77
2023/11/09 10:04:11;;;;;;;9.40;2.67;;;11.30;99.90;;;;;;5013034;28;20073;-77
2023/11/09 10:06:38;;;;;;;16.60;3.97;;;11.20;99.90;;;;;;5013701;28;20045;-77
2023/11/09 10:09:05;;;;;;;14.60;4.10;;;11.30;99.90;;;;;;4991271;28;20140;-76
2023/11/09 10:11:32;;;;;;;13.65;3.78;;;11.10;99.90;;;;;;5013175;28;20046;-76
2023/11/09 10:13:58;;;;;;;9.82;3.28;;;11.10;99.90;;;;;;5007726;28;20084;-76
2023/11/09 10:16:33;;;;;;;10.13;4.65;;;11.10;99.90;;;;;;5000245;28;20053;-73
2023/11/09 10:19:03;;;;;;;11.80;4.88;;;11.20;99.90;;;;;;4977365;28;20053;-74
2023/11/09 10:21:30;;;;;;;17.75;6.10;;;11.20;99.90;;;;;;4977621;28;20077;-76
2023/11/09 10:24:00;;;;;;;18.38;6.50;;;11.20;99.90;;;;;;5003043;28;20030;-76
2023/11/09 10:26:55;;;;;;;13.27;4.53;;;11.30;99.90;;;;;;5013366;28;20440;-76
2023/11/09 10:29:20;;;;;;;18.13;4.38;;;11.30;99.90;;;;;;5004819;28;20094;-74
2023/11/09 10:31:46;;;;;;;11.15;5.13;;;11.30;99.90;;;;;;5012536;28;20540;-74
2023/11/09 10:34:12;;;;;;;18.23;4.53;;;11.30;99.90;;;;;;5012356;28;20046;-74
2023/11/09 10:36:42;;;;;;;15.35;5.20;;;11.20;99.90;;;;;;5012450;28;20042;-74
2023/11/09 10:39:16;;;;;;;17.33;4.45;;;11.30;99.90;;;;;;5015565;23;20441;-74
2023/11/09 10:41:52;;;;;;;17.67;4.95;;;11.30;99.90;;;;;;5009419;28;20049;-74
2023/11/09 10:44:28;;;;;;;12.02;4.30;;;11.20;99.90;;;;;;4993799;28;20086;-74
2023/11/09 10:46:55;;;;;;;18.23;5.38;;;11.30;99.90;;;;;;5025980;28;20126;-74
2023/11/09 10:49:27;;;;;;;16.60;5.10;;;11.30;99.90;;;;;;5041823;28;20042;-74
2023/11/09 10:51:55;;;;;;;18.25;4.68;;;11.30;99.90;;;;;;5013880;28;20459;-74
2023/11/09 10:54:24;;;;;;;13.88;4.40;;;11.20;99.90;;;;;;5012095;28;20493;-75
2023/11/09 10:56:55;;;;;;;16.88;5.40;;;11.10;99.90;;;;;;5012769;28;20128;-74
2023/11/09 10:59:24;;;;;;;15.35;4.47;;;11.10;99.90;;;;;;5013719;28;20041;-74
2023/11/09 11:01:55;;;;;;;19.13;4.70;;;11.10;99.90;;;;;;5013683;28;20073;-75
2023/11/09 11:04:26;;;;;;;15.50;4.72;;;11.10;99.90;;;;;;5011871;28;20049;-74
2023/11/09 11:06:56;;;;;;;10.30;4.40;;;11.10;99.90;;;;;;5012615;28;20108;-74
2023/11/09 11:09:26;;;;;;;15.75;4.85;;;11.10;99.90;;;;;;5012242;28;20053;-74
2023/11/09 11:12:02;;;;;;;18.35;5.60;;;11.20;99.90;;;;;;5013668;28;20100;-74
2023/11/09 11:14:34;;;;;;;18.08;4.97;;;11.20;99.90;;;;;;5013276;28;20056;-74
2023/11/09 11:17:08;;;;;;;13.93;5.18;;;11.30;99.90;;;;;;5013387;28;20062;-74
2023/11/09 11:19:47;;;;;;;13.45;5.05;;;11.30;99.90;;;;;;5013254;28;20491;-74
2023/11/09 11:22:44;;;;;;;19.75;5.15;;;11.30;99.90;;;;;;4995490;28;20386;-75
2023/11/09 11:25:36;;;;;;;13.32;5.32;;;11.30;99.90;;;;;;5012201;28;20405;-74
2023/11/09 11:28:10;;;;;;;18.45;5.22;;;11.30;99.90;;;;;;5011859;28;20077;-75
2023/11/09 11:30:39;;;;;;;8.77;3.22;;;11.30;99.90;;;;;;5011856;28;20053;-74
2023/11/09 11:33:16;;;;;;;12.75;4.72;;;11.30;99.90;;;;;;5011485;28;20516;-74
2023/11/09 11:35:49;;;;;;;13.38;3.90;;;11.30;99.90;;;;;;5013046;28;20073;-74
2023/11/09 11:38:15;;;;;;;11.43;3.60;;;11.30;99.90;;;;;;5012704;28;20042;-74
2023/11/09 11:40:45;;;;;;;12.60;3.75;;;11.20;99.90;;;;;;5009883;28;20103;-74
2023/11/09 11:43:12;;;;;;;8.35;3.17;;;11.30;99.90;;;;;;5002693;28;20061;-75
2023/11/09 11:45:41;;;;;;;12.85;3.35;;;11.20;99.90;;;;;;5002198;28;20068;-74
2023/11/09 11:48:19;;;;;;;8.95;5.05;;;11.20;99.90;;;;;;5008294;28;20045;-74
2023/11/09 11:50:45;;;;;;;9.80;2.70;;;11.20;99.90;;;;;;5012982;28;20068;-74
2023/11/09 11:53:31;;;;;;;10.27;2.97;;;11.20;99.90;;;;;;5012525;28;20057;-74
2023/11/09 11:55:58;;;;;;;12.93;3.65;;;11.30;99.90;;;;;;5012877;28;20128;-74
2023/11/09 11:58:27;;;;;;;10.65;3.22;;;11.20;99.90;;;;;;5044315;28;20070;-76
2023/11/09 12:00:54;;;;;;;16.10;3.88;;;11.40;99.90;;;;;;5013112;28;20421;-77
2023/11/09 12:03:23;;;;;;;12.55;3.53;;;11.50;99.90;;;;;;5015345;28;20038;-76
2023/11/09 12:05:49;;;;;;;13.00;4.00;;;11.60;99.90;;;;;;5011503;28;20112;-76
2023/11/09 12:08:16;;;;;;;10.05;2.70;;;11.60;99.90;;;;;;5044198;28;20517;-76
2023/11/09 12:10:42;;;;;;;13.65;2.58;;;11.60;99.90;;;;;;5012532;28;20084;-76
2023/11/09 12:13:09;;;;;;;18.10;2.70;;;11.70;99.90;;;;;;5011856;28;20049;-76
2023/11/09 12:15:38;;;;;;;15.88;3.83;;;11.60;99.90;;;;;;5044047;28;20056;-76
2023/11/09 12:18:06;;;;;;;14.35;3.58;;;11.60;99.90;;;;;;5044072;28;20042;-75
2023/11/09 12:20:33;;;;;;;14.65;2.47;;;11.70;99.90;;;;;;5012598;28;20112;-76
2023/11/09 12:23:06;;;;;;;12.73;3.22;;;11.70;99.90;;;;;;5043976;28;20034;-76
2023/11/09 12:25:54;;;;;;;10.65;2.80;;;11.60;99.90;;;;;;5044421;28;20092;-75
2023/11/09 12:28:21;;;;;;;10.38;3.63;;;11.70;99.90;;;;;;5027508;28;20046;-75
2023/11/09 12:30:48;;;;;;;12.82;3.22;;;11.70;99.90;;;;;;5011071;28;20547;-75
2023/11/09 12:33:14;;;;;;;10.90;3.38;;;11.70;99.90;;;;;;5007249;28;20038;-77
2023/11/09 12:35:59;;;;;;;7.18;3.05;;;11.70;99.90;;;;;;5024197;28;20125;-76
2023/11/09 12:38:25;;;;;;;14.65;2.78;;;11.70;99.90;;;;;;4992170;28;20042;-76
2023/11/09 12:40:52;;;;;;;11.68;2.78;;;11.70;99.90;;;;;;4991192;28;20038;-76
2023/11/09 12:43:18;;;;;;;13.43;2.83;;;11.80;99.90;;;;;;5008850;28;20125;-75
2023/11/09 12:46:05;;;;;;;10.23;2.50;;;11.90;99.90;;;;;;5046016;28;20076;-75
2023/11/09 12:48:47;;;;;;;16.05;2.75;;;11.90;99.90;;;;;;5016594;28;20088;-76
2023/11/09 12:51:34;;;;;;;10.82;2.60;;;11.90;99.90;;;;;;5020347;28;20042;-76
2023/11/09 12:54:00;;;;;;;12.88;3.35;;;11.80;99.90;;;;;;5033455;28;20460;-76
2023/11/09 12:56:26;;;;;;;10.98;3.05;;;11.80;99.90;;;;;;5017735;28;20085;-76